Time;durP1;ratioP1;P1;durP2;ratioP2;P2;SDS_P1;SDS_P2;PMS_P1;PMS_P2;Temp;Humidity;BMP_temperature;BMP_pressure;BME280_temperature;BME280_humidity;BME280_pressure;Samples;Min_cycle;Max_cycle;Signal;HPM_P1;HPM_P2
2022/02/23 00:01:42;;;;;;;11.38;2.65;;;7.10;99.90;;;;;;4999505;28;20225;-80
2022/02/23 00:04:09;;;;;;;7.82;2.50;;;7.00;99.90;;;;;;5000007;28;20205;-81
2022/02/23 00:06:36;;;;;;;8.55;3.33;;;7.00;99.90;;;;;;4999193;28;20268;-81
2022/02/23 00:09:02;;;;;;;8.27;2.63;;;7.00;99.90;;;;;;4999751;28;20227;-81
2022/02/23 00:11:29;;;;;;;12.95;2.78;;;6.90;99.90;;;;;;4998619;28;20260;-81
2022/02/23 00:13:56;;;;;;;11.18;3.78;;;6.90;99.90;;;;;;4998281;28;20243;-81
2022/02/23 00:16:24;;;;;;;9.77;2.90;;;6.90;99.90;;;;;;4999065;28;20204;-80
2022/02/23 00:18:50;;;;;;;12.50;2.85;;;7.00;99.90;;;;;;4999022;28;20283;-80
2022/02/23 00:21:17;;;;;;;8.85;2.88;;;7.00;99.90;;;;;;4998752;28;20271;-80
2022/02/23 00:23:44;;;;;;;10.85;2.90;;;6.90;99.90;;;;;;5000689;28;20215;-80
2022/02/23 00:26:10;;;;;;;13.38;3.42;;;6.90;99.90;;;;;;4998632;28;20271;-80
2022/02/23 00:28:37;;;;;;;9.85;2.60;;;7.00;99.90;;;;;;4998265;28;20232;-80
2022/02/23 00:31:04;;;;;;;11.07;3.17;;;6.30;99.90;;;;;;4998801;28;20291;-79
2022/02/23 00:33:32;;;;;;;9.30;3.00;;;6.70;99.90;;;;;;4998183;28;20790;-80
2022/02/23 00:35:58;;;;;;;11.07;3.78;;;6.70;99.90;;;;;;4998703;28;20205;-79
2022/02/23 00:38:25;;;;;;;11.82;2.63;;;6.70;99.90;;;;;;5000030;28;20627;-79
2022/02/23 00:40:51;;;;;;;7.68;3.33;;;6.60;99.90;;;;;;5004281;28;20256;-80
2022/02/23 00:43:18;;;;;;;11.15;3.40;;;6.70;99.90;;;;;;4999307;28;20252;-79
2022/02/23 00:45:45;;;;;;;9.85;3.97;;;6.70;99.90;;;;;;4998941;28;20205;-80
2022/02/23 00:48:11;;;;;;;10.32;2.90;;;6.70;99.90;;;;;;5000502;28;20236;-80
2022/02/23 00:50:39;;;;;;;20.88;4.25;;;6.50;99.90;;;;;;4998568;28;20236;-80
2022/02/23 00:53:06;;;;;;;9.70;3.70;;;6.60;99.90;;;;;;5003934;28;20628;-79
2022/02/23 00:55:32;;;;;;;12.70;4.43;;;6.40;99.90;;;;;;5005940;28;20335;-79
2022/02/23 00:57:59;;;;;;;7.07;2.70;;;6.30;99.90;;;;;;5005685;28;20201;-79
2022/02/23 01:00:25;;;;;;;7.80;2.60;;;5.80;99.90;;;;;;5005814;28;20205;-78
2022/02/23 01:02:52;;;;;;;9.05;2.70;;;5.90;99.90;;;;;;5005509;28;20256;-80
2022/02/23 01:05:18;;;;;;;10.32;2.22;;;5.80;99.90;;;;;;5008166;28;20209;-78
2022/02/23 01:07:46;;;;;;;10.90;2.65;;;5.60;99.90;;;;;;5010443;28;20205;-78
2022/02/23 01:10:13;;;;;;;7.22;2.00;;;5.60;99.90;;;;;;5009645;28;20280;-78
2022/02/23 01:12:40;;;;;;;9.82;5.22;;;5.60;99.90;;;;;;5001976;28;20253;-80
2022/02/23 01:15:08;;;;;;;7.97;3.72;;;5.50;99.90;;;;;;4998896;28;20216;-79
2022/02/23 01:17:34;;;;;;;9.60;3.47;;;5.50;99.90;;;;;;4997794;28;20228;-79
2022/02/23 01:20:01;;;;;;;18.48;3.72;;;5.60;99.90;;;;;;4997487;28;20229;-79
2022/02/23 01:22:28;;;;;;;9.30;3.40;;;5.70;99.90;;;;;;4997889;28;20275;-79
2022/02/23 01:24:55;;;;;;;10.77;2.90;;;5.70;99.90;;;;;;4999358;28;20240;-78
2022/02/23 01:27:22;;;;;;;13.32;3.63;;;5.70;99.90;;;;;;5000900;28;20205;-80
2022/02/23 01:29:49;;;;;;;10.45;3.50;;;5.70;99.90;;;;;;4997306;28;20275;-78
2022/02/23 01:32:15;;;;;;;12.05;3.72;;;5.70;99.90;;;;;;4997470;28;20311;-80
2022/02/23 01:34:42;;;;;;;15.75;4.03;;;5.70;99.90;;;;;;4997250;28;20201;-80
2022/02/23 01:37:08;;;;;;;10.40;5.25;;;5.70;99.90;;;;;;4996850;28;20288;-80
2022/02/23 01:39:35;;;;;;;9.15;3.30;;;5.70;99.90;;;;;;4998629;28;20236;-79
2022/02/23 01:42:06;;;;;;;23.10;5.20;;;5.80;99.90;;;;;;4998903;28;20661;-79
2022/02/23 01:44:33;;;;;;;15.18;4.20;;;5.70;99.90;;;;;;5001690;28;20197;-79
2022/02/23 01:46:59;;;;;;;17.33;3.47;;;5.80;99.90;;;;;;5000191;28;20256;-79
2022/02/23 01:49:26;;;;;;;11.35;3.55;;;6.00;99.90;;;;;;4999536;28;20201;-79
2022/02/23 01:51:53;;;;;;;11.10;3.85;;;6.00;99.90;;;;;;4996766;28;20601;-79
2022/02/23 01:54:19;;;;;;;10.20;3.55;;;6.10;99.90;;;;;;4997114;28;20590;-78
2022/02/23 01:56:46;;;;;;;16.40;4.22;;;6.10;99.90;;;;;;5005664;28;20220;-78
2022/02/23 01:59:14;;;;;;;12.70;3.72;;;6.10;99.90;;;;;;5007597;28;20224;-78
2022/02/23 02:01:41;;;;;;;13.27;4.50;;;6.10;99.90;;;;;;5006200;28;20229;-78
2022/02/23 02:04:07;;;;;;;16.27;4.28;;;6.20;99.90;;;;;;5004776;28;20208;-79
2022/02/23 02:06:34;;;;;;;15.93;4.32;;;6.10;99.90;;;;;;5000745;28;20260;-79
2022/02/23 02:09:00;;;;;;;21.42;5.18;;;6.10;99.90;;;;;;4998255;28;20249;-80
2022/02/23 02:11:27;;;;;;;14.57;3.75;;;6.10;99.90;;;;;;4997329;28;20268;-80
2022/02/23 02:13:54;;;;;;;12.80;3.70;;;6.10;99.90;;;;;;4996920;28;20212;-80
2022/02/23 02:16:22;;;;;;;20.60;4.35;;;6.10;99.90;;;;;;4996866;28;20224;-80
2022/02/23 02:18:48;;;;;;;7.70;3.25;;;6.10;99.90;;;;;;4996236;28;20259;-79
2022/02/23 02:21:15;;;;;;;11.88;5.60;;;6.20;99.90;;;;;;4996643;28;20256;-80
2022/02/23 02:23:43;;;;;;;10.40;3.45;;;6.20;99.90;;;;;;4998439;28;20208;-78
2022/02/23 02:26:09;;;;;;;10.00;4.10;;;6.20;99.90;;;;;;4996277;28;20235;-78
2022/02/23 02:28:36;;;;;;;11.98;3.60;;;6.20;99.90;;;;;;4996757;28;20228;-79
2022/02/23 02:31:02;;;;;;;12.18;3.50;;;6.20;99.90;;;;;;4997639;28;20233;-78
2022/02/23 02:33:29;;;;;;;10.02;3.45;;;6.00;99.90;;;;;;4996646;28;20228;-79
2022/02/23 02:35:56;;;;;;;9.77;3.38;;;6.00;99.90;;;;;;4996354;28;20212;-81
2022/02/23 02:38:23;;;;;;;11.93;3.03;;;5.90;99.90;;;;;;4996137;28;20275;-79
2022/02/23 02:40:50;;;;;;;12.88;4.50;;;5.90;99.90;;;;;;4996345;28;20251;-80
2022/02/23 02:43:18;;;;;;;18.33;5.05;;;5.80;99.90;;;;;;4997238;28;20262;-80
2022/02/23 02:45:44;;;;;;;12.82;3.30;;;5.80;99.90;;;;;;4998901;28;20292;-80
2022/02/23 02:48:11;;;;;;;12.88;3.92;;;5.80;99.90;;;;;;5000358;28;20215;-80
2022/02/23 02:50:37;;;;;;;16.52;4.38;;;6.00;99.90;;;;;;5001110;28;20205;-80
2022/02/23 02:53:04;;;;;;;9.80;3.70;;;5.80;99.90;;;;;;5000739;28;20243;-80
2022/02/23 02:55:31;;;;;;;19.13;4.43;;;5.80;99.90;;;;;;5001663;28;20201;-80
2022/02/23 02:57:58;;;;;;;15.65;3.47;;;5.80;99.90;;;;;;5001235;28;20612;-79
2022/02/23 03:00:25;;;;;;;12.57;3.20;;;6.00;99.90;;;;;;5001865;28;20204;-79
2022/02/23 03:02:52;;;;;;;9.02;4.28;;;5.70;99.90;;;;;;5000467;28;20574;-80
2022/02/23 03:05:18;;;;;;;15.40;3.20;;;5.70;99.90;;;;;;5002737;28;20236;-78
2022/02/23 03:07:45;;;;;;;9.77;2.95;;;5.70;99.90;;;;;;5003284;28;20544;-79
2022/02/23 03:10:12;;;;;;;12.30;3.35;;;5.70;99.90;;;;;;4999669;28;20287;-79
2022/02/23 03:12:38;;;;;;;17.20;3.17;;;5.70;99.90;;;;;;5026862;23;20263;-83
2022/02/23 03:15:07;;;;;;;8.82;3.47;;;5.70;99.90;;;;;;5004460;28;20197;-84
2022/02/23 03:17:34;;;;;;;11.85;3.78;;;5.80;99.90;;;;;;5003871;28;20645;-83
2022/02/23 03:20:01;;;;;;;10.45;3.45;;;5.80;99.90;;;;;;5004836;28;20200;-83
2022/02/23 03:22:27;;;;;;;12.93;3.40;;;5.80;99.90;;;;;;5003914;28;20229;-83
2022/02/23 03:24:54;;;;;;;20.33;3.88;;;5.70;99.90;;;;;;5003317;28;20193;-84
2022/02/23 03:27:20;;;;;;;10.45;2.92;;;5.80;99.90;;;;;;5003442;28;20212;-83
2022/02/23 03:29:47;;;;;;;12.45;3.28;;;5.80;99.90;;;;;;5004092;28;20240;-83
2022/02/23 03:32:15;;;;;;;21.15;5.25;;;5.90;99.90;;;;;;5005559;28;20232;-83
2022/02/23 03:34:42;;;;;;;9.93;3.80;;;5.90;99.90;;;;;;5005964;28;20582;-83
2022/02/23 03:37:09;;;;;;;13.27;3.13;;;5.90;99.90;;;;;;5007277;28;20205;-83
2022/02/23 03:39:36;;;;;;;12.20;3.08;;;5.80;99.90;;;;;;5007571;28;20232;-84
2022/02/23 03:42:03;;;;;;;9.90;3.08;;;5.60;99.90;;;;;;5014427;28;20248;-84
2022/02/23 03:44:29;;;;;;;14.00;3.55;;;5.70;99.90;;;;;;5018609;28;20189;-84
2022/02/23 03:46:56;;;;;;;7.50;2.67;;;5.70;99.90;;;;;;5018562;28;20255;-83
2022/02/23 03:49:24;;;;;;;15.20;3.40;;;5.70;99.90;;;;;;5021655;28;20192;-82
2022/02/23 03:51:50;;;;;;;17.40;3.53;;;5.80;99.90;;;;;;5020054;28;20229;-83
2022/02/23 03:54:17;;;;;;;11.55;2.95;;;5.80;99.90;;;;;;5020280;28;20201;-83
2022/02/23 03:56:44;;;;;;;10.93;3.00;;;5.90;99.90;;;;;;5019168;28;20264;-83
2022/02/23 03:59:11;;;;;;;7.82;2.60;;;5.90;99.90;;;;;;5020687;28;20197;-82
2022/02/23 04:01:40;;;;;;;14.85;4.45;;;5.90;99.90;;;;;;5017227;28;20283;-83
2022/02/23 04:04:08;;;;;;;13.10;3.25;;;5.90;99.90;;;;;;5015806;28;20263;-82
2022/02/23 04:06:36;;;;;;;5.32;2.60;;;5.90;99.90;;;;;;5005947;28;20205;-83
2022/02/23 04:09:06;;;;;;;13.27;4.25;;;5.90;99.90;;;;;;5011046;28;20228;-84
2022/02/23 04:11:32;;;;;;;9.35;2.30;;;5.90;99.90;;;;;;5014577;28;20696;-83
2022/02/23 04:13:59;;;;;;;11.52;3.20;;;5.90;99.90;;;;;;5016065;28;20279;-83
2022/02/23 04:16:26;;;;;;;4.90;2.97;;;5.70;99.90;;;;;;5017233;28;20319;-83
2022/02/23 04:18:53;;;;;;;7.68;2.95;;;5.50;99.90;;;;;;5017126;28;20201;-83
2022/02/23 04:21:20;;;;;;;14.25;3.30;;;5.40;99.90;;;;;;5016743;28;20213;-83
2022/02/23 04:23:48;;;;;;;11.80;3.65;;;5.30;99.90;;;;;;5017480;28;20216;-83
2022/02/23 04:26:16;;;;;;;16.05;3.65;;;5.20;99.90;;;;;;5016745;28;20224;-84
2022/02/23 04:28:43;;;;;;;12.68;4.55;;;5.20;99.90;;;;;;5016455;28;20475;-83
2022/02/23 04:31:10;;;;;;;13.52;3.42;;;5.10;99.90;;;;;;5013957;28;20229;-84
2022/02/23 04:33:37;;;;;;;10.90;3.63;;;5.10;99.90;;;;;;5007712;28;20204;-84
2022/02/23 04:36:06;;;;;;;6.20;2.67;;;5.00;99.90;;;;;;5004121;28;20205;-84
2022/02/23 04:38:33;;;;;;;16.20;3.08;;;5.00;99.90;;;;;;5003902;28;20201;-85
2022/02/23 04:41:01;;;;;;;9.77;3.05;;;4.80;99.90;;;;;;5003005;28;20201;-84
2022/02/23 04:43:32;;;;;;;9.90;3.08;;;4.90;99.90;;;;;;5005887;28;20209;-84
2022/02/23 04:46:00;;;;;;;18.30;4.47;;;5.00;99.90;;;;;;5019410;28;20192;-84
2022/02/23 04:48:27;;;;;;;23.58;4.85;;;5.00;99.90;;;;;;5019981;28;20209;-84
2022/02/23 04:50:53;;;;;;;9.15;3.85;;;5.20;99.90;;;;;;5020285;28;20181;-84
2022/02/23 04:53:20;;;;;;;17.63;4.85;;;4.90;99.90;;;;;;5020348;28;20213;-84
2022/02/23 04:55:47;;;;;;;21.15;4.70;;;4.90;99.90;;;;;;5020390;28;20177;-84
2022/02/23 04:58:14;;;;;;;12.00;3.10;;;4.90;99.90;;;;;;5016478;28;20209;-84
2022/02/23 05:00:42;;;;;;;16.00;4.90;;;5.00;99.90;;;;;;5008505;28;20586;-84
2022/02/23 05:03:09;;;;;;;19.90;4.38;;;5.00;99.90;;;;;;5004349;28;20205;-84
2022/02/23 05:05:36;;;;;;;20.20;4.05;;;5.00;99.90;;;;;;5004585;28;20231;-84
2022/02/23 05:08:05;;;;;;;6.65;3.05;;;5.10;99.90;;;;;;5003540;28;20241;-85
2022/02/23 05:10:32;;;;;;;11.30;4.32;;;5.20;99.90;;;;;;5003378;28;20204;-85
2022/02/23 05:12:58;;;;;;;9.75;3.33;;;5.30;99.90;;;;;;5002102;28;20687;-84
2022/02/23 05:15:27;;;;;;;11.27;3.90;;;5.20;99.90;;;;;;5002472;28;20209;-85
2022/02/23 05:17:54;;;;;;;12.48;3.65;;;5.20;99.90;;;;;;5002065;28;20205;-84
2022/02/23 05:20:20;;;;;;;22.13;4.80;;;5.30;99.90;;;;;;5002307;28;20594;-85
2022/02/23 05:22:48;;;;;;;13.10;3.83;;;5.20;99.90;;;;;;4998039;28;20309;-84
2022/02/23 05:25:16;;;;;;;15.55;4.55;;;5.20;99.90;;;;;;4998578;28;20684;-84
2022/02/23 05:27:43;;;;;;;14.80;5.00;;;5.20;99.90;;;;;;4999386;28;20758;-84
2022/02/23 05:30:11;;;;;;;15.60;4.43;;;5.20;99.90;;;;;;5000392;28;20221;-84
2022/02/23 05:32:39;;;;;;;17.95;3.97;;;5.20;99.90;;;;;;5000439;28;20256;-85
2022/02/23 05:35:07;;;;;;;21.45;5.45;;;5.20;99.90;;;;;;5001265;28;20213;-84
2022/02/23 05:37:34;;;;;;;15.82;5.78;;;5.20;99.90;;;;;;5002560;28;20209;-84
2022/02/23 05:40:01;;;;;;;15.15;4.05;;;5.20;99.90;;;;;;5002101;28;20216;-84
2022/02/23 05:42:27;;;;;;;15.32;4.18;;;5.30;99.90;;;;;;5001415;28;20221;-85
2022/02/23 05:44:54;;;;;;;11.23;3.88;;;5.20;99.90;;;;;;5001258;28;20243;-85
2022/02/23 05:47:21;;;;;;;14.93;3.60;;;5.20;99.90;;;;;;5000609;28;20208;-84
2022/02/23 05:49:49;;;;;;;15.07;3.65;;;5.30;99.90;;;;;;5001267;28;20208;-84
2022/02/23 05:52:19;;;;;;;17.23;3.55;;;5.20;99.90;;;;;;5001897;28;20291;-84
2022/02/23 05:54:46;;;;;;;12.80;3.30;;;5.20;99.90;;;;;;5003222;28;20193;-84
2022/02/23 05:57:13;;;;;;;13.05;4.03;;;5.20;99.90;;;;;;5002964;28;20227;-84
2022/02/23 05:59:40;;;;;;;12.82;2.80;;;5.30;99.90;;;;;;5001660;28;20200;-84
2022/02/23 06:02:07;;;;;;;10.23;3.65;;;5.30;99.90;;;;;;5005636;28;20217;-84
2022/02/23 06:04:36;;;;;;;15.73;4.75;;;5.20;99.90;;;;;;5018475;28;20174;-85
2022/02/23 06:07:05;;;;;;;9.77;3.20;;;5.20;99.90;;;;;;5008132;28;20201;-86
2022/02/23 06:09:32;;;;;;;16.13;4.00;;;5.20;99.90;;;;;;5005410;28;20209;-83
2022/02/23 06:11:59;;;;;;;11.05;3.55;;;5.20;99.90;;;;;;5018408;28;20284;-83
2022/02/23 06:14:26;;;;;;;8.60;3.47;;;5.20;99.90;;;;;;5013298;28;20695;-83
2022/02/23 06:16:53;;;;;;;14.73;3.63;;;5.20;99.90;;;;;;5004194;28;20205;-84
2022/02/23 06:19:19;;;;;;;15.93;3.92;;;5.30;99.90;;;;;;5010832;28;20204;-82
2022/02/23 06:21:46;;;;;;;15.00;5.30;;;5.30;99.90;;;;;;5017819;28;20209;-82
2022/02/23 06:24:14;;;;;;;15.57;3.90;;;5.40;99.90;;;;;;5017519;28;20193;-80
2022/02/23 06:26:40;;;;;;;11.57;4.10;;;5.50;99.90;;;;;;5018098;28;20205;-81
2022/02/23 06:29:07;;;;;;;9.70;4.00;;;5.50;99.90;;;;;;5013998;28;20205;-82
2022/02/23 06:31:34;;;;;;;14.93;4.47;;;5.60;99.90;;;;;;5001970;28;20774;-82
2022/02/23 06:34:00;;;;;;;20.15;4.50;;;5.60;99.90;;;;;;5003340;28;20223;-82
2022/02/23 06:36:27;;;;;;;11.27;4.30;;;5.60;99.90;;;;;;4998946;28;20260;-82
2022/02/23 06:38:55;;;;;;;13.95;4.10;;;5.70;99.90;;;;;;4998040;28;20624;-82
2022/02/23 06:41:24;;;;;;;9.68;3.30;;;5.70;99.90;;;;;;4999429;28;20225;-82
2022/02/23 06:43:52;;;;;;;8.60;2.67;;;5.70;99.90;;;;;;5007686;28;20260;-82
2022/02/23 06:46:19;;;;;;;13.18;4.57;;;5.70;99.90;;;;;;5010970;28;20201;-82
2022/02/23 06:48:46;;;;;;;7.93;5.68;;;5.70;99.90;;;;;;5009491;28;20209;-82
2022/02/23 06:51:18;;;;;;;8.00;3.95;;;5.60;99.90;;;;;;5003376;28;20244;-83
2022/02/23 06:53:45;;;;;;;16.73;4.47;;;5.60;99.90;;;;;;5001527;28;20209;-81
2022/02/23 06:56:12;;;;;;;11.07;3.17;;;5.60;99.90;;;;;;5001694;28;20672;-82
2022/02/23 06:58:46;;;;;;;15.63;3.88;;;5.70;99.90;;;;;;5001963;28;20209;-81
2022/02/23 07:01:14;;;;;;;11.07;3.63;;;5.70;99.90;;;;;;5002692;28;20225;-82
2022/02/23 07:03:41;;;;;;;9.63;4.07;;;5.70;99.90;;;;;;5001832;28;20205;-82
2022/02/23 07:06:08;;;;;;;17.60;4.70;;;5.70;99.90;;;;;;5003184;28;20231;-82
2022/02/23 07:08:34;;;;;;;17.73;4.20;;;5.70;99.90;;;;;;5004017;28;20200;-82
2022/02/23 07:11:01;;;;;;;10.93;3.30;;;5.50;99.90;;;;;;5003374;28;20208;-82
2022/02/23 07:13:28;;;;;;;17.00;3.88;;;5.70;99.90;;;;;;5002497;28;20209;-81
2022/02/23 07:15:55;;;;;;;12.40;4.00;;;5.70;99.90;;;;;;5001594;28;20201;-81
2022/02/23 07:18:22;;;;;;;25.88;5.00;;;5.70;99.90;;;;;;5002394;28;20220;-83
2022/02/23 07:20:49;;;;;;;15.00;4.30;;;5.60;99.90;;;;;;5001676;28;20205;-82
2022/02/23 07:23:15;;;;;;;13.18;4.80;;;5.70;99.90;;;;;;5001618;28;20251;-82
2022/02/23 07:25:42;;;;;;;11.82;6.55;;;5.80;99.90;;;;;;5001532;28;20679;-82
2022/02/23 07:28:09;;;;;;;18.52;6.00;;;5.80;99.90;;;;;;5001679;28;20205;-82
2022/02/23 07:30:35;;;;;;;20.73;8.57;;;5.80;99.90;;;;;;5001471;28;20237;-81
2022/02/23 07:33:03;;;;;;;23.75;10.40;;;5.80;99.90;;;;;;5010104;28;20225;-80
2022/02/23 07:35:30;;;;;;;20.70;4.53;;;5.80;99.90;;;;;;5016578;28;20675;-80
2022/02/23 07:38:04;;;;;;;20.13;6.00;;;5.80;99.90;;;;;;5017097;28;20200;-82
2022/02/23 07:40:31;;;;;;;12.20;5.00;;;5.90;99.90;;;;;;5013109;28;20189;-82
2022/02/23 07:43:00;;;;;;;28.38;5.57;;;5.90;99.90;;;;;;5005829;28;20229;-82
2022/02/23 07:45:26;;;;;;;12.77;4.22;;;5.90;99.90;;;;;;5006588;28;20212;-81
2022/02/23 07:47:53;;;;;;;15.13;6.53;;;5.90;99.90;;;;;;5006655;28;20259;-82
2022/02/23 07:50:21;;;;;;;16.13;4.13;;;5.90;99.90;;;;;;5008620;28;20233;-82
2022/02/23 07:52:50;;;;;;;10.02;4.47;;;6.10;99.90;;;;;;5010257;28;20255;-82
2022/02/23 07:55:17;;;;;;;17.08;4.70;;;6.10;99.90;;;;;;5006774;28;20216;-81
2022/02/23 07:57:44;;;;;;;16.80;7.60;;;6.20;99.90;;;;;;5016464;28;20204;-83
2022/02/23 08:00:12;;;;;;;9.98;6.45;;;6.20;99.90;;;;;;5007973;28;20239;-82
2022/02/23 08:02:39;;;;;;;15.57;3.80;;;6.20;99.90;;;;;;5007356;28;20221;-82
2022/02/23 08:05:07;;;;;;;12.10;4.22;;;6.30;99.90;;;;;;5008152;28;20209;-82
2022/02/23 08:07:35;;;;;;;14.00;4.40;;;6.30;99.90;;;;;;5007745;28;20209;-82
2022/02/23 08:10:01;;;;;;;13.82;3.70;;;6.40;99.90;;;;;;5007286;28;20206;-82
2022/02/23 08:12:28;;;;;;;14.00;4.85;;;6.60;99.90;;;;;;5008819;28;20237;-82
2022/02/23 08:14:56;;;;;;;16.13;3.92;;;6.70;99.90;;;;;;5008754;28;20216;-82
2022/02/23 08:20:09;;;;;;;14.38;3.85;;;6.80;99.90;;;;;;5007717;28;20277;-82
2022/02/23 08:22:36;;;;;;;14.63;4.03;;;6.90;99.90;;;;;;5005794;28;20252;-82
2022/02/23 08:25:03;;;;;;;12.45;3.28;;;6.80;99.90;;;;;;5006076;28;20209;-83
2022/02/23 08:27:31;;;;;;;8.48;3.58;;;6.90;99.90;;;;;;5006643;28;20583;-83
2022/02/23 08:29:58;;;;;;;17.92;3.85;;;6.90;99.90;;;;;;5007657;28;20217;-83
2022/02/23 08:32:25;;;;;;;15.98;4.30;;;6.70;99.90;;;;;;5010712;28;20225;-83
2022/02/23 08:34:52;;;;;;;14.85;4.40;;;6.80;99.90;;;;;;5010472;28;20205;-82
2022/02/23 08:37:20;;;;;;;14.93;5.45;;;6.90;99.90;;;;;;5011594;28;20220;-83
2022/02/23 08:39:50;;;;;;;12.50;3.10;;;7.50;99.90;;;;;;5011735;28;20510;-82
2022/02/23 08:42:18;;;;;;;10.50;3.47;;;7.10;99.90;;;;;;5018789;28;20221;-82
2022/02/23 08:44:44;;;;;;;11.00;3.03;;;7.20;99.90;;;;;;5018792;28;20189;-82
2022/02/23 08:47:11;;;;;;;12.45;3.30;;;7.20;99.90;;;;;;5019133;28;20209;-82
2022/02/23 08:49:39;;;;;;;11.65;4.55;;;7.20;99.90;;;;;;5018152;28;20213;-84
2022/02/23 08:52:06;;;;;;;9.38;2.53;;;7.20;99.90;;;;;;5019857;28;20212;-85
2022/02/23 08:54:33;;;;;;;7.50;4.10;;;7.20;99.90;;;;;;5018886;28;20240;-85
2022/02/23 08:57:02;;;;;;;12.15;3.33;;;7.20;99.90;;;;;;5017123;28;20209;-85
2022/02/23 08:59:28;;;;;;;13.05;4.35;;;7.20;1.00;;;;;;5012953;28;20209;-85
2022/02/23 09:01:55;;;;;;;13.60;5.60;;;7.10;1.00;;;;;;5012538;28;20233;-84
2022/02/23 09:04:22;;;;;;;11.35;3.50;;;7.20;1.00;;;;;;5011614;28;20215;-85
2022/02/23 09:06:48;;;;;;;17.48;3.53;;;7.30;1.00;;;;;;5011810;28;20244;-85
2022/02/23 09:09:15;;;;;;;8.75;2.63;;;7.60;99.90;;;;;;5010719;28;20205;-85
2022/02/23 11:02:34;;;;;;;;;;;;;;;;;;;;;
2022/02/23 11:25:14;;;;;;;5.43;2.50;;;9.20;99.90;;;;;;1391131;26;20500;-81
2022/02/23 11:27:45;;;;;;;6.13;2.97;;;9.10;99.90;;;;;;5043244;28;20480;-80
2022/02/23 11:30:16;;;;;;;10.67;2.77;;;9.30;99.90;;;;;;5042884;28;20429;-79
2022/02/23 11:32:46;;;;;;;8.83;3.33;;;9.30;99.90;;;;;;5041540;28;20440;-79
2022/02/23 11:35:13;;;;;;;7.80;2.83;;;9.40;99.90;;;;;;5041703;28;20446;-80
2022/02/23 11:37:41;;;;;;;8.40;2.90;;;9.40;99.90;;;;;;5044350;28;20457;-78
2022/02/23 11:40:09;;;;;;;8.43;2.93;;;9.30;99.90;;;;;;5047766;28;20491;-79
2022/02/23 11:42:38;;;;;;;10.87;2.70;;;9.60;99.90;;;;;;5046297;28;20438;-80
2022/02/23 11:45:09;;;;;;;7.30;4.13;;;9.60;99.90;;;;;;5045084;28;20447;-79
2022/02/23 11:47:58;;;;;;;9.00;3.00;;;9.70;99.90;;;;;;5048423;28;20447;-81
2022/02/23 11:51:00;;;;;;;5.23;3.10;;;9.70;99.90;;;;;;5045821;28;20441;-81
2022/02/23 11:53:59;;;;;;;12.93;3.53;;;9.70;99.90;;;;;;5044497;28;20484;-85
2022/02/23 11:56:44;;;;;;;7.80;3.40;;;9.70;99.90;;;;;;5046057;28;20448;-85
2022/02/23 12:02:39;;;;;;;10.17;4.80;;;9.30;99.90;;;;;;5045728;28;20552;-87
2022/02/23 12:05:09;;;;;;;8.97;3.60;;;9.20;99.90;;;;;;5047161;28;20426;-88
2022/02/23 12:07:54;;;;;;;10.07;3.00;;;9.10;99.90;;;;;;5046100;28;20458;-85
2022/02/23 12:10:32;;;;;;;14.30;4.20;;;9.20;99.90;;;;;;5047086;28;20494;-87
2022/02/23 12:15:41;;;;;;;8.07;3.13;;;9.00;99.90;;;;;;5043897;26;20448;-86
2022/02/23 12:18:58;;;;;;;9.70;3.30;;;8.90;99.90;;;;;;5046180;28;20463;-88
2022/02/23 12:21:48;;;;;;;12.43;2.77;;;8.80;99.90;;;;;;5037822;28;20751;-87
2022/02/23 12:24:19;;;;;;;6.47;2.60;;;9.00;99.90;;;;;;5050535;28;20405;-87
2022/02/23 12:30:29;;;;;;;9.80;2.80;;;9.20;99.90;;;;;;5049180;28;20429;-87
2022/02/23 12:33:44;;;;;;;9.40;4.07;;;9.00;99.90;;;;;;5048563;28;20466;-89
2022/02/23 12:36:23;;;;;;;6.63;2.80;;;9.10;99.90;;;;;;5048782;28;20456;-86
2022/02/23 12:39:06;;;;;;;7.63;2.87;;;8.90;99.90;;;;;;5055516;28;20454;-87
2022/02/23 12:41:52;;;;;;;10.30;3.00;;;9.00;99.90;;;;;;5059579;28;20446;-87
2022/02/23 12:47:40;;;;;;;12.33;3.50;;;9.20;99.90;;;;;;5056756;28;20439;-86
2022/02/23 12:53:11;;;;;;;5.43;2.07;;;9.40;99.90;;;;;;5052660;28;20449;-86
2022/02/23 12:55:54;;;;;;;5.40;3.70;;;9.70;99.90;;;;;;5054860;28;20498;-85
2022/02/23 13:01:45;;;;;;;6.30;2.93;;;9.70;99.90;;;;;;4969124;29;20436;-85
2022/02/23 13:04:35;;;;;;;7.40;3.17;;;9.50;99.90;;;;;;4972285;29;20416;-86
2022/02/23 13:07:04;;;;;;;9.93;3.80;;;9.40;99.90;;;;;;5011358;28;20462;-88
2022/02/23 13:10:13;;;;;;;5.03;3.30;;;9.40;99.90;;;;;;5057730;28;20480;-87
2022/02/23 13:12:48;;;;;;;7.63;3.07;;;9.20;99.90;;;;;;5037642;28;20462;-85
2022/02/23 13:15:27;;;;;;;7.00;2.73;;;9.10;99.90;;;;;;5058600;28;20506;-86
2022/02/23 13:20:35;;;;;;;6.53;2.17;;;8.80;99.90;;;;;;5056150;28;20416;-88
2022/02/23 13:42:14;;;;;;;6.70;3.17;;;9.80;99.90;;;;;;4821707;29;20445;-89
2022/02/23 13:44:44;;;;;;;6.27;2.93;;;9.80;99.90;;;;;;4962167;29;20546;-89
2022/02/23 13:47:57;;;;;;;6.50;2.50;;;9.70;99.90;;;;;;5030885;28;20444;-90
2022/02/23 14:01:47;;;;;;;5.67;3.10;;;9.50;99.90;;;;;;4991206;28;20435;-88
2022/02/23 14:04:17;;;;;;;6.73;2.87;;;9.70;99.90;;;;;;4971720;28;20446;-88
2022/02/23 14:06:55;;;;;;;5.80;2.80;;;9.80;99.90;;;;;;5054599;28;20429;-88
2022/02/23 14:12:21;;;;;;;5.70;3.13;;;10.70;99.90;;;;;;5056204;28;20502;-85
2022/02/23 14:18:23;;;;;;;7.57;2.83;;;9.90;99.90;;;;;;5044814;28;20407;-88
2022/02/23 14:21:23;;;;;;;9.87;2.73;;;9.90;99.90;;;;;;5050916;28;20428;-88
2022/02/23 14:24:11;;;;;;;7.70;3.73;;;9.90;99.90;;;;;;5052408;28;20418;-88
2022/02/23 14:43:07;;;;;;;7.40;2.53;;;9.40;99.90;;;;;;4943205;28;20464;-87
2022/02/23 14:48:47;;;;;;;9.00;3.20;;;9.30;99.90;;;;;;5030858;28;20443;-89
2022/02/23 14:51:15;;;;;;;13.47;4.47;;;9.40;99.90;;;;;;5033736;28;20411;-87
2022/02/23 14:53:54;;;;;;;5.97;2.60;;;9.50;99.90;;;;;;5036043;28;20514;-88
2022/02/23 14:56:24;;;;;;;8.13;3.53;;;9.40;99.90;;;;;;5033651;28;20847;-88
2022/02/23 14:58:51;;;;;;;6.73;2.83;;;;;;;;;;5028435;28;20500;-82
2022/02/23 15:04:03;;;;;;;5.40;2.50;;;9.70;99.90;;;;;;5211513;23;20486;-87
2022/02/23 15:06:58;;;;;;;9.63;3.83;;;9.60;99.90;;;;;;5012422;28;20804;-88
2022/02/23 15:09:59;;;;;;;8.83;3.03;;;5.90;99.90;;;;;;5016814;28;20496;-88
2022/02/23 15:13:24;;;;;;;5.40;2.70;;;9.40;99.90;;;;;;5015483;28;20534;-88
2022/02/23 15:18:39;;;;;;;7.33;3.53;;;9.40;99.90;;;;;;5029798;23;20485;-82
2022/02/23 15:21:07;;;;;;;8.73;3.63;;;9.40;99.90;;;;;;5006659;28;20519;-81
2022/02/23 15:23:35;;;;;;;6.27;3.37;;;9.50;99.90;;;;;;5006752;28;20459;-81
2022/02/23 15:26:02;;;;;;;6.80;4.07;;;9.50;99.90;;;;;;5009972;28;20485;-81
2022/02/23 15:28:29;;;;;;;5.50;2.40;;;9.50;99.90;;;;;;5010098;28;20866;-80
2022/02/23 15:30:56;;;;;;;10.20;4.00;;;9.50;99.90;;;;;;5009180;28;21009;-82
2022/02/23 15:33:22;;;;;;;6.93;3.10;;;9.40;99.90;;;;;;5006304;28;20503;-81
2022/02/23 15:35:49;;;;;;;7.50;3.60;;;9.40;99.90;;;;;;5007953;28;20485;-82
2022/02/23 15:38:16;;;;;;;11.30;4.60;;;9.30;99.90;;;;;;5005293;28;20470;-82
2022/02/23 15:40:44;;;;;;;4.93;2.70;;;9.20;99.90;;;;;;5007684;28;20460;-82
2022/02/23 15:43:11;;;;;;;10.13;4.70;;;9.20;99.90;;;;;;5010341;28;20449;-82
2022/02/23 15:45:38;;;;;;;7.40;2.87;;;9.20;99.90;;;;;;5008153;28;20517;-82
2022/02/23 15:48:05;;;;;;;4.40;2.67;;;9.20;99.90;;;;;;5005525;28;20503;-82
2022/02/23 15:50:34;;;;;;;7.43;3.00;;;9.10;99.90;;;;;;5006585;28;20453;-82
2022/02/23 15:53:01;;;;;;;7.87;3.10;;;9.00;99.90;;;;;;5004723;28;20435;-81
2022/02/23 15:55:28;;;;;;;10.17;3.23;;;9.00;99.90;;;;;;5013083;28;20496;-81
2022/02/23 15:57:56;;;;;;;5.67;3.00;;;8.90;99.90;;;;;;5007813;28;20496;-81
2022/02/23 16:00:23;;;;;;;9.40;4.30;;;8.80;99.90;;;;;;5002228;28;20477;-80
2022/02/23 16:02:50;;;;;;;6.90;3.70;;;8.80;99.90;;;;;;5003461;28;20518;-81
2022/02/23 16:05:16;;;;;;;9.57;3.30;;;8.70;99.90;;;;;;5004313;28;20489;-80
2022/02/23 16:07:46;;;;;;;18.93;10.00;;;8.80;99.90;;;;;;5009722;28;20482;-79
2022/02/23 16:10:13;;;;;;;7.63;4.60;;;8.70;99.90;;;;;;5013580;28;20417;-82
2022/02/23 16:12:40;;;;;;;8.97;4.20;;;8.70;99.90;;;;;;5012365;28;20424;-81
2022/02/23 16:15:11;;;;;;;8.93;3.37;;;8.60;99.90;;;;;;5007735;28;20534;-80
2022/02/23 16:17:38;;;;;;;10.03;4.27;;;8.60;99.90;;;;;;5001155;28;20490;-81
2022/02/23 16:20:06;;;;;;;5.67;3.90;;;8.60;99.90;;;;;;5002152;28;20428;-80
2022/02/23 16:22:33;;;;;;;7.30;3.80;;;8.60;99.90;;;;;;5001826;28;20491;-82
2022/02/23 16:25:00;;;;;;;7.50;4.10;;;8.50;99.90;;;;;;5002410;28;20446;-82
2022/02/23 16:27:27;;;;;;;8.65;3.42;;;8.50;99.90;;;;;;5003016;28;20444;-82
2022/02/23 16:29:54;;;;;;;11.70;4.03;;;8.50;99.90;;;;;;5005378;28;20201;-81
2022/02/23 16:32:22;;;;;;;9.50;4.17;;;8.30;99.90;;;;;;5002395;28;20487;-82
2022/02/23 16:34:49;;;;;;;10.90;3.22;;;8.40;99.90;;;;;;5001892;28;20591;-82
2022/02/23 16:37:16;;;;;;;11.63;4.30;;;8.20;99.90;;;;;;5001295;28;20245;-81
2022/02/23 16:39:42;;;;;;;21.00;6.60;;;8.30;99.90;;;;;;5002939;28;20423;-82
2022/02/23 16:42:09;;;;;;;12.73;4.43;;;8.30;99.90;;;;;;5006513;28;20419;-82